Garfield, Illinois
Current Conditions -  °F | °C
As of 9:55 AM on Sunday 25 Jan 2015 (Local Time) from KC75 Reporting Station
Light Snow Light Snow  
Wind Chill: 24°   Ceiling: 800
Heat Index: 32°   Visibility: 2mi
Dew Point: 31°   Wind: 10mph
Humidity: 96%   Direction: 40°NE
Pressure: 29.7"   Gusts: 17mph
Location:  41.0632°N, 89.0208°W
Report Text: KC75 251555Z AUTO 04009G15KT 2SM -SN OVC008 00/00 A2970 RMK AO2 P0001 T00021003
Loading
Personal Weather Stations






























Interactive Weather Map New forecast layout! Learn more

10-Day Weather Forecast

Advertisements
Track Severe Weather on mobile